createdAt,value
2024-05-09T00:00:31.619Z,75.91
2024-05-09T00:03:30.545Z,76.63
2024-05-09T00:06:22.496Z,76.64
2024-05-09T00:09:14.354Z,77.50
2024-05-09T00:12:06.473Z,77.80
2024-05-09T00:14:58.538Z,77.06
2024-05-09T00:17:50.564Z,76.60
2024-05-09T00:20:42.723Z,76.16
2024-05-09T00:23:34.925Z,75.94
2024-05-09T00:26:27.047Z,76.02
2024-05-09T00:29:18.997Z,75.95
2024-05-09T00:32:11.224Z,75.65
2024-05-09T00:35:03.266Z,76.46
2024-05-09T00:37:55.307Z,76.93
2024-05-09T00:40:47.463Z,77.70
2024-05-09T00:43:40.123Z,78.33
2024-05-09T00:46:32.066Z,78.74
2024-05-09T00:49:26.669Z,79.48
2024-05-09T00:52:18.821Z,80.37
2024-05-09T00:55:10.854Z,80.81
2024-05-09T00:58:05.102Z,80.67
2024-05-09T01:01:01.545Z,79.78
2024-05-09T01:03:53.929Z,79.69
2024-05-09T01:06:46.147Z,79.74
2024-05-09T01:09:38.080Z,80.50
2024-05-09T01:12:29.982Z,81.06
2024-05-09T01:15:21.910Z,80.99
2024-05-09T01:18:14.439Z,80.84
2024-05-09T01:21:06.459Z,80.49
2024-05-09T01:23:58.360Z,80.50
2024-05-09T01:26:50.720Z,80.80
2024-05-09T01:29:42.649Z,81.08
2024-05-09T01:32:34.705Z,80.97
2024-05-09T01:35:26.804Z,80.93
2024-05-09T01:38:18.801Z,80.48
2024-05-09T01:41:10.776Z,81.00
2024-05-09T01:44:02.687Z,81.09
2024-05-09T01:46:54.719Z,81.25
2024-05-09T01:49:46.662Z,80.82
2024-05-09T01:52:38.610Z,81.17
2024-05-09T01:55:30.512Z,80.89
2024-05-09T01:58:22.512Z,80.42
2024-05-09T02:01:14.678Z,80.90
2024-05-09T02:04:06.988Z,80.43
2024-05-09T02:06:59.079Z,80.34
2024-05-09T02:09:54.091Z,80.52
2024-05-09T02:12:46.007Z,80.88
2024-05-09T02:15:38.027Z,81.26
2024-05-09T02:18:30.042Z,81.31
2024-05-09T02:21:22.044Z,80.86
2024-05-09T02:24:13.968Z,81.13
2024-05-09T02:27:05.915Z,81.04
2024-05-09T02:29:57.893Z,82.04
2024-05-09T02:32:49.939Z,82.06
2024-05-09T02:35:43.668Z,82.64
2024-05-09T02:38:37.022Z,82.40
2024-05-09T02:41:29.093Z,82.39
2024-05-09T02:44:21.223Z,82.74
2024-05-09T02:47:13.341Z,82.78
2024-05-09T02:50:07.868Z,82.91
2024-05-09T02:52:59.968Z,82.67
2024-05-09T02:55:51.901Z,82.42
2024-05-09T02:58:43.916Z,83.48
2024-05-09T03:01:35.954Z,82.46
2024-05-09T03:04:28.029Z,82.55
2024-05-09T03:07:20.387Z,81.84
2024-05-09T03:10:18.462Z,82.04
2024-05-09T03:13:15.963Z,81.42
2024-05-09T03:16:08.347Z,81.12
2024-05-09T03:19:00.361Z,80.56
2024-05-09T03:21:52.375Z,81.31
2024-05-09T03:24:44.319Z,80.34
2024-05-09T03:27:37.921Z,79.62
2024-05-09T03:30:38.936Z,79.49
2024-05-09T03:33:34.873Z,78.65
2024-05-09T03:36:27.009Z,79.03
2024-05-09T03:39:18.965Z,78.68
2024-05-09T03:42:10.949Z,79.48
2024-05-09T03:45:02.904Z,79.63
2024-05-09T03:47:55.105Z,81.00
2024-05-09T03:50:47.383Z,80.40
2024-05-09T03:53:39.472Z,81.24
2024-05-09T03:56:31.691Z,81.65
2024-05-09T03:59:23.705Z,82.96
2024-05-09T04:02:15.739Z,82.75
2024-05-09T04:05:07.743Z,83.57
2024-05-09T04:07:59.887Z,83.93
2024-05-09T04:10:51.923Z,84.49
2024-05-09T04:13:43.916Z,84.94
2024-05-09T04:16:35.863Z,84.07
2024-05-09T04:19:28.587Z,84.21
2024-05-09T04:22:20.576Z,83.93
2024-05-09T04:25:12.671Z,84.26
2024-05-09T04:28:05.167Z,84.17
2024-05-09T04:30:57.235Z,83.76
2024-05-09T04:33:49.316Z,83.97
2024-05-09T04:36:43.951Z,83.99
2024-05-09T04:39:36.385Z,83.44
2024-05-09T04:42:28.350Z,83.87
2024-05-09T04:45:20.239Z,83.22
2024-05-09T04:48:12.329Z,82.97
2024-05-09T04:51:07.063Z,82.40
2024-05-09T04:53:59.060Z,81.96
2024-05-09T04:56:50.960Z,81.26
2024-05-09T04:59:42.904Z,81.00
2024-05-09T05:02:35.249Z,81.73
2024-05-09T05:05:27.274Z,82.41
2024-05-09T05:08:19.680Z,81.37
2024-05-09T05:11:12.354Z,82.14
2024-05-09T05:14:04.402Z,81.74
2024-05-09T05:16:56.410Z,80.62
2024-05-09T05:19:48.536Z,81.67
2024-05-09T05:22:40.543Z,81.33
2024-05-09T05:25:32.427Z,81.50
2024-05-09T05:28:24.522Z,80.94
2024-05-09T05:31:16.496Z,79.83
2024-05-09T05:34:08.423Z,80.30
2024-05-09T05:37:00.286Z,79.36
2024-05-09T05:39:52.165Z,79.63
2024-05-09T05:42:44.095Z,80.31
2024-05-09T05:45:36.395Z,79.83
2024-05-09T05:48:29.077Z,78.61
2024-05-09T05:51:21.306Z,79.59
2024-05-09T05:54:13.290Z,80.05
2024-05-09T05:57:05.173Z,79.98
2024-05-09T05:59:57.044Z,79.98
2024-05-09T06:02:49.147Z,80.04
2024-05-09T06:05:41.523Z,80.47
2024-05-09T06:08:33.633Z,80.62
2024-05-09T06:11:25.702Z,79.82
2024-05-09T06:14:17.804Z,79.43
2024-05-09T06:17:09.999Z,78.03
2024-05-09T06:20:02.053Z,76.46
2024-05-09T06:22:54.057Z,74.93
2024-05-09T06:25:46.013Z,75.16
2024-05-09T06:28:37.973Z,76.53
2024-05-09T06:31:29.848Z,76.51
2024-05-09T06:34:21.821Z,76.66
2024-05-09T06:37:13.775Z,77.28
2024-05-09T06:40:07.576Z,76.61
2024-05-09T06:43:01.683Z,76.56
2024-05-09T06:45:53.600Z,75.42
2024-05-09T06:48:45.844Z,75.14
2024-05-09T06:51:38.305Z,75.35
2024-05-09T06:54:30.220Z,72.59
2024-05-09T06:57:22.108Z,72.25
2024-05-09T07:00:22.712Z,71.03
2024-05-09T07:03:22.322Z,69.71
2024-05-09T07:06:14.319Z,71.93
2024-05-09T07:09:06.259Z,71.30
2024-05-09T07:11:58.212Z,72.03
2024-05-09T07:14:50.578Z,71.99
2024-05-09T07:17:42.767Z,71.78
2024-05-09T07:20:35.312Z,70.47
2024-05-09T07:23:28.373Z,69.89
2024-05-09T07:26:20.410Z,68.06
2024-05-09T07:29:12.392Z,66.98
2024-05-09T07:32:04.787Z,68.42
2024-05-09T07:34:56.732Z,66.85
2024-05-09T07:37:48.657Z,67.61
2024-05-09T07:40:40.643Z,66.53
2024-05-09T07:43:32.665Z,64.91
2024-05-09T07:47:20.223Z,63.17
2024-05-09T07:53:32.684Z,63.83
2024-05-09T07:55:43.259Z,64.61
2024-05-09T07:58:35.226Z,65.61
2024-05-09T08:01:27.317Z,66.77
2024-05-09T08:04:19.638Z,66.30
2024-05-09T08:07:11.963Z,65.72
2024-05-09T08:10:05.260Z,65.73
2024-05-09T08:12:58.400Z,65.51
2024-05-09T08:15:51.551Z,66.71
2024-05-09T08:18:43.635Z,67.29
2024-05-09T08:21:35.654Z,65.95
2024-05-09T08:24:27.602Z,62.95
2024-05-09T08:27:19.525Z,62.52
2024-05-09T08:30:18.955Z,61.05
2024-05-09T08:33:16.963Z,61.21
2024-05-09T08:36:09.000Z,59.83
2024-05-09T08:39:00.899Z,62.80
2024-05-09T08:41:52.781Z,63.58
2024-05-09T08:44:44.877Z,63.24
2024-05-09T08:47:37.094Z,62.23
2024-05-09T08:50:36.320Z,62.98
2024-05-09T08:53:31.198Z,64.01
2024-05-09T08:56:28.248Z,65.73
2024-05-09T08:59:36.262Z,61.54
2024-05-09T09:02:28.575Z,62.31
2024-05-09T09:05:30.234Z,61.20
2024-05-09T09:08:25.695Z,60.56
2024-05-09T09:11:17.627Z,61.14
2024-05-09T09:14:09.567Z,59.97
2024-05-09T09:17:12.359Z,62.99
2024-05-09T09:20:05.466Z,64.19
2024-05-09T09:23:00.837Z,61.50
2024-05-09T09:25:52.783Z,60.58
2024-05-09T09:28:44.994Z,62.30
2024-05-09T09:31:36.957Z,59.09
2024-05-09T09:34:30.086Z,60.95
2024-05-09T09:37:27.845Z,62.46
2024-05-09T09:40:22.396Z,59.18
2024-05-09T09:43:22.616Z,62.00
2024-05-09T09:46:17.824Z,59.57
2024-05-09T09:49:10.152Z,57.86
2024-05-09T09:52:02.689Z,59.38
2024-05-09T09:54:57.054Z,60.18
2024-05-09T09:57:49.210Z,56.92
2024-05-09T10:00:41.957Z,58.12
2024-05-09T10:03:34.804Z,56.46
2024-05-09T10:06:31.351Z,57.45
2024-05-09T10:09:23.806Z,58.16
2024-05-09T10:12:15.966Z,56.44
2024-05-09T10:15:08.702Z,58.41
2024-05-09T10:18:05.078Z,58.14
2024-05-09T10:20:57.119Z,57.34
2024-05-09T10:24:05.178Z,57.02
2024-05-09T10:26:57.243Z,55.49
2024-05-09T10:30:00.787Z,53.80
2024-05-09T10:32:56.543Z,57.48
2024-05-09T10:35:51.860Z,58.54
2024-05-09T10:38:43.929Z,54.13
2024-05-09T10:41:38.163Z,56.09
2024-05-09T10:44:30.276Z,55.12
2024-05-09T10:47:23.056Z,55.69
2024-05-09T10:50:22.314Z,57.16
2024-05-09T10:53:20.187Z,57.12
2024-05-09T10:56:15.377Z,56.37
2024-05-09T10:59:07.347Z,53.68
2024-05-09T11:02:02.942Z,51.37
2024-05-09T11:04:55.130Z,53.03
2024-05-09T11:07:47.482Z,55.75
2024-05-09T11:10:40.358Z,51.39
2024-05-09T11:13:34.591Z,53.30
2024-05-09T11:16:26.557Z,52.97
2024-05-09T11:19:18.667Z,54.19
2024-05-09T11:22:10.961Z,54.51
2024-05-09T11:25:03.313Z,53.24
2024-05-09T11:27:58.762Z,54.95
2024-05-09T11:30:51.508Z,51.99
2024-05-09T11:33:44.634Z,51.70
2024-05-09T11:36:36.734Z,52.38
2024-05-09T11:39:28.858Z,53.70
2024-05-09T11:42:20.786Z,53.06
2024-05-09T11:45:12.810Z,50.94
2024-05-09T11:48:05.251Z,50.90
2024-05-09T11:50:57.259Z,48.56
2024-05-09T11:53:49.146Z,48.51
2024-05-09T11:56:41.268Z,49.24
2024-05-09T11:59:33.165Z,50.14
2024-05-09T12:02:25.173Z,50.00
2024-05-09T12:05:17.515Z,48.81
2024-05-09T12:08:09.935Z,49.63
2024-05-09T12:11:02.071Z,49.84
2024-05-09T12:13:54.006Z,49.57
2024-05-09T12:16:46.098Z,50.88
2024-05-09T12:19:38.234Z,49.20
2024-05-09T12:22:30.295Z,50.40
2024-05-09T12:25:22.212Z,50.41
2024-05-09T12:28:16.689Z,50.14
2024-05-09T12:31:09.024Z,47.08
2024-05-09T12:34:01.065Z,47.02
2024-05-09T12:36:53.467Z,49.39
2024-05-09T12:39:45.390Z,47.13
2024-05-09T12:42:37.381Z,50.28
2024-05-09T12:45:29.442Z,49.98
2024-05-09T12:48:21.565Z,46.25
2024-05-09T12:51:13.547Z,47.00
2024-05-09T12:54:05.431Z,47.47
2024-05-09T12:56:57.379Z,47.39
2024-05-09T12:59:49.451Z,44.74
2024-05-09T13:02:41.526Z,47.33
2024-05-09T13:05:33.813Z,46.58
2024-05-09T13:08:26.708Z,46.07
2024-05-09T13:11:18.808Z,46.53
2024-05-09T13:14:10.685Z,47.12
2024-05-09T13:17:02.688Z,45.30
2024-05-09T13:19:54.673Z,46.75
2024-05-09T13:22:46.588Z,45.19
2024-05-09T13:25:38.571Z,42.86
2024-05-09T13:28:30.753Z,44.02
2024-05-09T13:31:22.729Z,42.95
2024-05-09T13:34:14.688Z,42.15
2024-05-09T13:37:06.770Z,45.01
2024-05-09T13:40:03.359Z,44.50
2024-05-09T13:42:56.167Z,43.34
2024-05-09T13:45:48.282Z,45.78
2024-05-09T13:48:40.356Z,44.94
2024-05-09T13:51:32.317Z,44.38
2024-05-09T13:54:24.241Z,45.75
2024-05-09T13:57:16.271Z,44.77
2024-05-09T14:00:18.225Z,44.38
2024-05-09T14:03:20.418Z,45.30
2024-05-09T14:06:13.357Z,43.85
2024-05-09T14:09:05.361Z,43.12
2024-05-09T14:11:57.294Z,45.94
2024-05-09T14:14:49.226Z,45.66
2024-05-09T14:17:41.281Z,48.69
2024-05-09T14:20:33.258Z,46.24
2024-05-09T14:23:25.158Z,43.99
2024-05-09T14:26:17.179Z,43.83
2024-05-09T14:29:09.065Z,45.68
2024-05-09T14:32:02.775Z,45.08
2024-05-09T14:34:54.742Z,45.20
2024-05-09T14:37:46.767Z,45.49
2024-05-09T14:40:42.756Z,44.11
2024-05-09T14:43:36.075Z,44.81
2024-05-09T14:46:28.130Z,44.43
2024-05-09T14:49:20.257Z,45.69
2024-05-09T14:52:12.381Z,45.06
2024-05-09T14:55:04.493Z,44.90
2024-05-09T14:57:56.642Z,45.17
2024-05-09T15:00:51.106Z,44.99
2024-05-09T15:03:43.937Z,44.74
2024-05-09T15:06:38.900Z,44.22
2024-05-09T15:09:39.772Z,44.86
2024-05-09T15:12:31.770Z,45.07
2024-05-09T15:15:23.688Z,45.26
2024-05-09T15:18:16.403Z,44.20
2024-05-09T15:21:08.558Z,44.94
2024-05-09T15:24:00.543Z,45.29
2024-05-09T15:26:52.707Z,46.85
2024-05-09T15:29:44.717Z,45.55
2024-05-09T15:32:36.693Z,44.14
2024-05-09T15:35:29.293Z,44.57
2024-05-09T15:38:21.455Z,45.44
2024-05-09T15:41:13.927Z,44.34
2024-05-09T15:44:05.809Z,44.69
2024-05-09T15:46:57.777Z,43.25
2024-05-09T15:49:49.967Z,44.55
2024-05-09T15:52:41.915Z,45.79
2024-05-09T15:55:34.619Z,44.33
2024-05-09T15:58:28.073Z,46.00
2024-05-09T16:01:20.083Z,45.76
2024-05-09T16:04:12.179Z,45.62
2024-05-09T16:07:04.517Z,46.50
2024-05-09T16:09:56.709Z,46.75
2024-05-09T16:12:48.690Z,46.04
2024-05-09T16:15:40.998Z,44.95
2024-05-09T16:18:33.138Z,46.10
2024-05-09T16:21:25.052Z,45.95
2024-05-09T16:24:17.004Z,47.30
2024-05-09T16:27:09.162Z,47.27
2024-05-09T16:30:01.104Z,48.30
2024-05-09T16:32:53.046Z,48.88
2024-05-09T16:35:45.169Z,48.91
2024-05-09T16:38:37.084Z,49.91
2024-05-09T16:41:28.956Z,50.64
2024-05-09T16:44:20.809Z,49.77
2024-05-09T16:47:12.850Z,50.79
2024-05-09T16:50:08.255Z,50.87
2024-05-09T16:53:00.440Z,52.72
2024-05-09T16:55:52.402Z,52.77
2024-05-09T16:58:44.509Z,51.69
2024-05-09T17:01:36.471Z,52.61
2024-05-09T17:04:28.738Z,51.46
2024-05-09T17:07:22.033Z,50.79
2024-05-09T17:10:22.512Z,51.56
2024-05-09T17:13:21.466Z,51.24
2024-05-09T17:16:14.061Z,51.96
2024-05-09T17:19:06.071Z,51.74
2024-05-09T17:21:57.994Z,52.52
2024-05-09T17:24:50.002Z,53.58
2024-05-09T17:27:42.003Z,53.28
2024-05-09T17:30:37.562Z,52.69
2024-05-09T17:33:31.610Z,52.53
2024-05-09T17:36:23.699Z,53.03
2024-05-09T17:39:15.629Z,53.76
2024-05-09T17:42:07.553Z,53.55
2024-05-09T17:44:59.536Z,53.59
2024-05-09T17:47:51.779Z,53.33
2024-05-09T17:50:43.893Z,54.04
2024-05-09T17:53:35.894Z,54.43
2024-05-09T17:56:28.551Z,54.58
2024-05-09T17:59:20.463Z,53.84
2024-05-09T18:02:12.609Z,54.31
2024-05-09T18:05:05.099Z,54.68
2024-05-09T18:07:57.292Z,54.82
2024-05-09T18:10:50.657Z,54.60
2024-05-09T18:13:46.146Z,55.18
2024-05-09T18:16:38.098Z,55.16
2024-05-09T18:19:30.183Z,55.01
2024-05-09T18:22:22.448Z,55.54
2024-05-09T18:25:14.464Z,55.59
2024-05-09T18:28:06.955Z,55.45
2024-05-09T18:30:58.972Z,55.98
2024-05-09T18:33:51.059Z,56.92
2024-05-09T18:36:43.542Z,57.55
2024-05-09T18:39:35.522Z,58.97
2024-05-09T18:42:27.460Z,60.00
2024-05-09T18:45:19.428Z,60.23
2024-05-09T18:48:12.145Z,60.69
2024-05-09T18:51:04.423Z,60.18
2024-05-09T18:53:56.300Z,61.47
2024-05-09T18:56:48.215Z,60.69
2024-05-09T18:59:40.105Z,61.51
2024-05-09T19:02:32.233Z,61.89
2024-05-09T19:05:24.421Z,61.93
2024-05-09T19:08:16.530Z,62.81
2024-05-09T19:11:08.467Z,63.21
2024-05-09T19:14:00.415Z,63.51
2024-05-09T19:16:52.330Z,63.70
2024-05-09T19:19:45.663Z,64.71
2024-05-09T19:22:37.564Z,64.92
2024-05-09T19:25:29.437Z,65.09
2024-05-09T19:28:21.509Z,65.14
2024-05-09T19:31:13.589Z,65.21
2024-05-09T19:34:05.658Z,66.07
2024-05-09T19:36:57.803Z,66.21
2024-05-09T19:39:49.775Z,66.55
2024-05-09T19:42:41.778Z,65.70
2024-05-09T19:45:35.153Z,66.01
2024-05-09T19:48:28.267Z,65.98
2024-05-09T19:51:20.193Z,65.17
2024-05-09T19:54:12.079Z,64.51
2024-05-09T19:57:04.273Z,64.20
2024-05-09T19:59:56.165Z,65.20
2024-05-09T20:02:48.361Z,65.96
2024-05-09T20:05:42.712Z,65.59
2024-05-09T20:08:34.857Z,65.68
2024-05-09T20:11:27.174Z,65.41
2024-05-09T20:14:19.166Z,64.54
2024-05-09T20:17:11.280Z,64.17
2024-05-09T20:20:05.889Z,63.87
2024-05-09T20:22:59.254Z,64.10
2024-05-09T20:25:51.179Z,64.04
2024-05-09T20:28:43.065Z,64.40
2024-05-09T20:31:34.997Z,64.73
2024-05-09T20:34:26.990Z,64.73
2024-05-09T20:37:19.376Z,65.11
2024-05-09T20:40:18.271Z,65.43
2024-05-09T20:43:17.175Z,65.45
2024-05-09T20:46:09.225Z,65.17
2024-05-09T20:49:01.299Z,64.82
2024-05-09T20:51:53.275Z,64.92
2024-05-09T20:54:45.278Z,65.22
2024-05-09T20:57:37.218Z,66.14
2024-05-09T21:00:35.491Z,65.48
2024-05-09T21:03:32.075Z,67.04
2024-05-09T21:06:24.061Z,67.05
2024-05-09T21:09:16.028Z,67.24
2024-05-09T21:12:07.929Z,66.77
2024-05-09T21:14:59.835Z,67.29
2024-05-09T21:17:51.754Z,67.68
2024-05-09T21:20:43.736Z,67.93
2024-05-09T21:23:36.820Z,67.80
2024-05-09T21:26:28.720Z,68.08
2024-05-09T21:29:20.706Z,67.65
2024-05-09T21:32:12.628Z,66.88
2024-05-09T21:35:04.895Z,67.06
2024-05-09T21:37:56.801Z,66.81
2024-05-09T21:40:48.753Z,67.56
2024-05-09T21:43:40.665Z,67.14
2024-05-09T21:46:32.775Z,67.11
2024-05-09T21:49:24.774Z,67.23
2024-05-09T21:52:16.871Z,67.77
2024-05-09T21:55:09.036Z,68.52
2024-05-09T21:58:01.174Z,69.22
2024-05-09T22:00:53.204Z,68.94
2024-05-09T22:03:45.324Z,68.85
2024-05-09T22:06:37.363Z,68.46
2024-05-09T22:09:29.296Z,68.24
2024-05-09T22:12:21.187Z,68.12
2024-05-09T22:15:13.222Z,68.32
2024-05-09T22:18:06.076Z,69.01
2024-05-09T22:20:58.249Z,69.50
2024-05-09T22:23:50.217Z,69.36
2024-05-09T22:26:42.116Z,69.06
2024-05-09T22:29:34.343Z,68.35
2024-05-09T22:32:26.303Z,68.13
2024-05-09T22:35:18.250Z,67.87
2024-05-09T22:38:10.189Z,68.63
2024-05-09T22:41:06.134Z,68.54
2024-05-09T22:43:58.131Z,67.75
2024-05-09T22:46:50.053Z,67.22
2024-05-09T22:49:41.990Z,67.27
2024-05-09T22:52:33.942Z,67.95
2024-05-09T22:55:25.900Z,68.40
2024-05-09T22:58:18.038Z,67.94
2024-05-09T23:01:14.919Z,67.94
2024-05-09T23:04:07.043Z,68.43
2024-05-09T23:06:59.071Z,68.09
2024-05-09T23:09:51.046Z,68.22
2024-05-09T23:12:42.998Z,68.40
2024-05-09T23:15:37.183Z,68.29
2024-05-09T23:18:29.652Z,68.25
2024-05-09T23:21:21.590Z,68.30
2024-05-09T23:24:13.471Z,67.95
2024-05-09T23:27:05.441Z,67.95
2024-05-09T23:29:57.576Z,67.64
2024-05-09T23:32:49.574Z,68.22
2024-05-09T23:35:42.561Z,67.54
2024-05-09T23:38:34.442Z,67.75
2024-05-09T23:41:26.356Z,67.57
2024-05-09T23:44:18.314Z,67.69
2024-05-09T23:47:10.876Z,67.76
2024-05-09T23:50:05.128Z,67.76
2024-05-09T23:52:58.598Z,68.00
2024-05-09T23:55:50.520Z,67.94
2024-05-09T23:58:42.643Z,68.70
